Terminal Aerodrome Forecast
Issued by NWS Austin/San Antonio, TX

Home | Current Version | Previous Version | Text Only | Print | Product List | Glossary On
Versions: 1 2 3 4 5 6 7 8 9 10 11 12 13 14 15 16
000
FTUS44 KEWX 241139
TAFSAT
TAF
KSAT 241139Z 2412/2518 16006KT P6SM SCT012
      TEMPO 2412/2414 BKN012
     FM241400 17008KT P6SM SCT040 SCT250
     FM242000 14012KT P6SM SCT060 SCT250
     FM251000 16006KT P6SM BKN012
     FM251400 17007KT P6SM BKN050 BKN100=

USA.gov is the U.S. government's official web portal to all federal, state and local government web resources and services.